Terminal Aerodrome Forecast
Issued by NWS

Home | Current Version | Previous Version | Graphics & Text | Print | Product List | Glossary On
Versions: 1 2 3 4 5 6 7 8 9 10 11 12 13 14 15 16 17 18 19 20
000
FTUS41 KCLE 301600 AAB
TAFFDY
TAF AMD
KFDY 301601Z 3016/3112 25004KT P6SM BKN025
     FM301800 26008KT P6SM BKN040
      TEMPO 3018/3021 4SM -TSRA OVC025CB
     FM302200 26004KT P6SM SCT070=

USA.gov is the U.S. government's official web portal to all federal, state and local government web resources and services.